Time;durP1;ratioP1;P1;durP2;ratioP2;P2;SDS_P1;SDS_P2;PMS_P1;PMS_P2;Temp;Humidity;BMP_temperature;BMP_pressure;BME280_temperature;BME280_humidity;BME280_pressure;Samples;Min_cycle;Max_cycle;Signal;HPM_P1;HPM_P2
2022/03/14 00:00:38;;;;;;;;;;;;;;;-143.90;100.00;55039.75;2088288;28;20852;-64
2022/03/14 00:01:59;;;;;;;;;;;;;;;-143.90;100.00;55067.53;2096170;28;20326;-64
2022/03/14 00:03:21;;;;;;;;;;;;;;;-143.90;100.00;55047.69;2092338;28;19924;-64
2022/03/14 00:04:41;;;;;;;;;;;;;;;-143.90;100.00;55027.81;2087552;28;20012;-63
2022/03/14 00:06:02;;;;;;;;;;;;;;;-143.90;100.00;55015.91;2083790;28;19991;-63
2022/03/14 00:07:23;;;;;;;;;;;;;;;-143.90;100.00;55061.59;2086945;28;19924;-63
2022/03/14 00:08:45;;;;;;;;;;;;;;;-143.90;100.00;55041.72;2089154;28;20027;-63
2022/03/14 00:10:06;;;;;;;;;;;;;;;-143.90;100.00;55071.50;2089175;28;20423;-64
2022/03/14 00:11:27;;;;;;;;;;;;;;;-143.90;100.00;55063.56;2088830;28;19979;-64
2022/03/14 00:12:56;;;;;;;;;;;;;;;-143.90;100.00;55039.75;2089708;28;19924;-64
2022/03/14 00:14:17;;;;;;;;;;;;;;;-143.90;100.00;55027.81;2089375;28;19959;-63
2022/03/14 00:15:40;;;;;;;;;;;;;;;-143.90;100.00;55087.41;2089649;28;19974;-63
2022/03/14 00:17:06;;;;;;;;;;;;;;;-143.90;100.00;55047.69;2090581;28;19975;-64
2022/03/14 00:18:30;;;;;;;;;;;;;;;-143.90;100.00;55059.59;2089611;28;19924;-64
2022/03/14 00:19:51;;;;;;;;;;;;;;;-143.90;100.00;55071.50;2088269;28;20373;-64
2022/03/14 00:21:11;;;;;;;;;;;;;;;-143.90;100.00;55037.75;2087542;28;20451;-64
2022/03/14 00:22:32;;;;;;;;;;;;;;;-143.90;100.00;55043.72;2089812;28;19978;-63
2022/03/14 00:23:54;;;;;;;;;;;;;;;-143.90;100.00;55075.47;2088577;28;20354;-63
2022/03/14 00:25:14;;;;;;;;;;;;;;;-143.90;100.00;55045.69;2089855;28;19967;-64
2022/03/14 00:26:35;;;;;;;;;;;;;;;-143.90;100.00;55035.78;2089894;28;19920;-64
2022/03/14 00:27:59;;;;;;;;;;;;;;;-143.90;100.00;55055.63;2089389;28;20052;-64
2022/03/14 00:29:20;;;;;;;;;;;;;;;-143.90;100.00;55089.38;2085985;28;19935;-64
2022/03/14 00:30:40;;;;;;;;;;;;;;;-143.90;100.00;55059.59;2089143;28;19927;-64
2022/03/14 00:32:01;;;;;;;;;;;;;;;-143.90;100.00;55045.69;2090297;28;19942;-64
2022/03/14 00:33:22;;;;;;;;;;;;;;;-143.90;100.00;55049.66;2089050;28;19969;-64
2022/03/14 00:34:42;;;;;;;;;;;;;;;-143.90;100.00;55043.72;2088616;28;20035;-65
2022/03/14 00:36:04;;;;;;;;;;;;;;;-143.90;100.00;55061.59;2088521;28;20099;-65
2022/03/14 00:37:25;;;;;;;;;;;;;;;-143.90;100.00;55055.63;2090453;28;19926;-64
2022/03/14 00:38:46;;;;;;;;;;;;;;;-143.90;100.00;55075.47;2087516;28;19960;-64
2022/03/14 00:40:07;;;;;;;;;;;;;;;-143.90;100.00;55029.81;2087785;28;20479;-64
2022/03/14 00:41:29;;;;;;;;;;;;;;;-143.90;100.00;55063.56;2090146;28;20292;-64
2022/03/14 00:42:50;;;;;;;;;;;;;;;-143.90;100.00;55063.56;2090337;28;19936;-64
2022/03/14 00:44:13;;;;;;;;;;;;;;;-143.90;100.00;55083.41;2088745;28;19994;-64
2022/03/14 00:45:34;;;;;;;;;;;;;;;-143.90;100.00;55059.59;2080202;28;19936;-64
2022/03/14 00:46:55;;;;;;;;;;;;;;;-143.90;100.00;55071.50;2087770;28;20635;-64
2022/03/14 00:48:16;;;;;;;;;;;;;;;-143.90;100.00;55023.84;2089998;28;19928;-64
2022/03/14 00:49:37;;;;;;;;;;;;;;;-143.90;100.00;55019.88;2092656;28;20106;-64
2022/03/14 00:50:58;;;;;;;;;;;;;;;-143.90;100.00;55063.56;2091996;28;20020;-64
2022/03/14 00:52:18;;;;;;;;;;;;;;;-143.90;100.00;55007.97;2091510;28;19920;-64
2022/03/14 00:53:44;;;;;;;;;;;;;;;-143.90;100.00;55047.69;2089489;28;19921;-63
2022/03/14 00:55:05;;;;;;;;;;;;;;;-143.90;100.00;55039.75;2090183;28;19924;-64
2022/03/14 00:56:27;;;;;;;;;;;;;;;-143.90;100.00;55063.56;2091034;28;19966;-65
2022/03/14 00:57:47;;;;;;;;;;;;;;;-143.90;100.00;55021.88;2090042;28;19921;-64
2022/03/14 00:59:08;;;;;;;;;;;;;;;-143.90;100.00;55043.72;2090865;28;19927;-64
2022/03/14 01:00:29;;;;;;;;;;;;;;;-143.90;100.00;55047.69;2091780;28;19931;-62
2022/03/14 01:01:50;;;;;;;;;;;;;;;-143.90;100.00;55031.78;2089905;28;19924;-63
2022/03/14 01:03:11;;;;;;;;;;;;;;;-143.90;100.00;55069.53;2090043;28;19920;-63
2022/03/14 01:04:31;;;;;;;;;;;;;;;-143.90;100.00;55071.50;2090321;28;19942;-64
2022/03/14 01:05:52;;;;;;;;;;;;;;;-143.90;100.00;55071.50;2091499;28;20054;-64
2022/03/14 01:07:13;;;;;;;;;;;;;;;-143.90;100.00;55051.66;2089636;28;20037;-64
2022/03/14 01:08:34;;;;;;;;;;;;;;;-143.90;100.00;55047.69;2090930;28;20044;-64
2022/03/14 01:09:54;;;;;;;;;;;;;;;-143.90;100.00;55055.63;2090919;28;19920;-64
2022/03/14 01:11:15;;;;;;;;;;;;;;;-143.90;100.00;55063.56;2091058;28;19990;-64
2022/03/14 01:12:36;;;;;;;;;;;;;;;-143.90;100.00;55037.75;2091110;28;19920;-64
2022/03/14 01:13:57;;;;;;;;;;;;;;;-143.90;100.00;55037.75;2096042;28;20458;-64
2022/03/14 01:15:18;;;;;;;;;;;;;;;-143.90;100.00;55047.69;2093014;28;19986;-64
2022/03/14 01:16:40;;;;;;;;;;;;;;;-143.90;100.00;55073.50;2091081;28;19928;-65
2022/03/14 01:18:01;;;;;;;;;;;;;;;-143.90;100.00;55069.53;2090328;28;19968;-64
2022/03/14 01:19:22;;;;;;;;;;;;;;;-143.90;100.00;55071.50;2089523;28;19922;-64
2022/03/14 01:20:43;;;;;;;;;;;;;;;-143.90;100.00;55023.84;2080870;28;19925;-63
2022/03/14 01:22:10;;;;;;;;;;;;;;;-143.90;100.00;55099.31;2085923;28;20047;-64
2022/03/14 01:23:30;;;;;;;;;;;;;;;-143.90;100.00;55015.91;2089642;28;19920;-64
2022/03/14 01:24:51;;;;;;;;;;;;;;;-143.90;100.00;55031.78;2089671;28;20051;-64
2022/03/14 01:26:11;;;;;;;;;;;;;;;-143.90;100.00;55041.72;2090147;28;19927;-64
2022/03/14 01:27:35;;;;;;;;;;;;;;;-143.90;100.00;55041.72;2091022;28;19920;-64
2022/03/14 01:28:56;;;;;;;;;;;;;;;-143.90;100.00;55019.88;2097026;28;19924;-64
2022/03/14 01:30:19;;;;;;;;;;;;;;;-143.90;100.00;55027.81;2097170;28;20133;-64
2022/03/14 01:31:40;;;;;;;;;;;;;;;-143.90;100.00;55071.50;2096813;28;19924;-64
2022/03/14 01:33:01;;;;;;;;;;;;;;;-143.90;100.00;55063.56;2098167;28;19974;-64
2022/03/14 01:34:21;;;;;;;;;;;;;;;-143.90;100.00;55061.59;2098040;28;19924;-64
2022/03/14 01:35:42;;;;;;;;;;;;;;;-143.90;100.00;55051.66;2097266;28;19920;-62
2022/03/14 01:37:04;;;;;;;;;;;;;;;-143.90;100.00;55051.66;2096364;28;19975;-65
2022/03/14 01:38:25;;;;;;;;;;;;;;;-143.90;100.00;55023.84;2097265;28;20760;-64
2022/03/14 01:39:46;;;;;;;;;;;;;;;-143.90;100.00;55055.63;2097414;28;20485;-64
2022/03/14 01:41:07;;;;;;;;;;;;;;;-143.90;100.00;55047.69;2097878;28;19926;-64
2022/03/14 01:42:28;;;;;;;;;;;;;;;-143.90;100.00;55047.69;2098420;28;20477;-64
2022/03/14 01:43:49;;;;;;;;;;;;;;;-143.90;100.00;55039.75;2098294;28;19921;-63
2022/03/14 01:45:10;;;;;;;;;;;;;;;-143.90;100.00;55041.72;2097779;28;20611;-64
2022/03/14 01:46:32;;;;;;;;;;;;;;;-143.90;100.00;55059.59;2096142;28;19921;-64
2022/03/14 01:47:52;;;;;;;;;;;;;;;-143.90;100.00;55057.59;2097118;28;19951;-64
2022/03/14 01:49:14;;;;;;;;;;;;;;;-143.90;100.00;55071.50;2098949;28;20574;-64
2022/03/14 01:50:34;;;;;;;;;;;;;;;-143.90;100.00;55051.66;2096872;28;19966;-64
2022/03/14 01:51:58;;;;;;;;;;;;;;;-143.90;100.00;55021.88;2097896;28;20006;-64
2022/03/14 01:53:19;;;;;;;;;;;;;;;-143.90;100.00;55083.41;2096942;28;19919;-64
2022/03/14 01:54:40;;;;;;;;;;;;;;;-143.90;100.00;55023.84;2098325;28;19931;-64
2022/03/14 01:56:01;;;;;;;;;;;;;;;-143.90;100.00;55055.63;2096402;28;19959;-64
2022/03/14 01:57:22;;;;;;;;;;;;;;;-143.90;100.00;55067.53;2105657;27;20509;-64
2022/03/14 01:58:43;;;;;;;;;;;;;;;-143.90;100.00;55071.50;2100396;28;19928;-64
2022/03/14 02:00:22;;;;;;;;;;;;;;;-143.90;100.00;55085.41;2097421;28;20376;-64
2022/03/14 02:01:43;;;;;;;;;;;;;;;-143.90;100.00;55051.66;2096805;28;19920;-64
2022/03/14 02:03:03;;;;;;;;;;;;;;;-143.90;100.00;55055.63;2096402;28;19920;-63
2022/03/14 02:04:24;;;;;;;;;;;;;;;-143.90;100.00;55023.84;2096868;28;19920;-64
2022/03/14 02:05:47;;;;;;;;;;;;;;;-143.90;100.00;55059.59;2093684;28;20008;-65
2022/03/14 02:07:08;;;;;;;;;;;;;;;-143.90;100.00;55031.78;2095401;28;19928;-64
2022/03/14 02:08:28;;;;;;;;;;;;;;;-143.90;100.00;55067.53;2098155;28;20684;-64
2022/03/14 02:09:49;;;;;;;;;;;;;;;-143.90;100.00;55019.88;2097881;28;19920;-64
2022/03/14 02:11:10;;;;;;;;;;;;;;;-143.90;100.00;55059.59;2096779;28;20375;-63
2022/03/14 02:12:31;;;;;;;;;;;;;;;-143.90;100.00;55039.75;2097497;28;19926;-64
2022/03/14 02:13:51;;;;;;;;;;;;;;;-143.90;100.00;55067.53;2097087;28;19984;-64
2022/03/14 02:15:13;;;;;;;;;;;;;;;-143.90;100.00;55043.72;2097353;28;19928;-64
2022/03/14 02:16:35;;;;;;;;;;;;;;;-143.90;100.00;55075.47;2096663;28;19962;-64
2022/03/14 02:17:55;;;;;;;;;;;;;;;-143.90;100.00;55017.91;2095752;28;19927;-64
2022/03/14 02:19:16;;;;;;;;;;;;;;;-143.90;100.00;55061.59;2097313;28;20323;-64
2022/03/14 02:20:38;;;;;;;;;;;;;;;-143.90;100.00;55055.63;2097405;28;19966;-65
2022/03/14 02:21:59;;;;;;;;;;;;;;;-143.90;100.00;55043.72;2098136;28;19921;-65
2022/03/14 02:23:20;;;;;;;;;;;;;;;-143.90;100.00;55019.88;2097819;28;19924;-65
2022/03/14 02:24:42;;;;;;;;;;;;;;;-143.90;100.00;55047.69;2097175;28;19923;-65
2022/03/14 02:26:03;;;;;;;;;;;;;;;-143.90;100.00;55059.59;2097244;28;19920;-65
2022/03/14 02:27:23;;;;;;;;;;;;;;;-143.90;100.00;55045.69;2096384;28;19920;-64
2022/03/14 02:28:44;;;;;;;;;;;;;;;-143.90;100.00;55061.59;2095704;28;19934;-64
2022/03/14 02:30:05;;;;;;;;;;;;;;;-143.90;100.00;55035.78;2097768;28;19920;-65
2022/03/14 02:31:26;;;;;;;;;;;;;;;-143.90;100.00;55047.69;2097611;28;19920;-65
2022/03/14 02:32:46;;;;;;;;;;;;;;;-143.90;100.00;55083.41;2096475;28;19926;-64
2022/03/14 02:34:07;;;;;;;;;;;;;;;-143.90;100.00;55031.78;2097043;28;19928;-64
2022/03/14 02:35:28;;;;;;;;;;;;;;;-143.90;100.00;55055.63;2097458;28;20033;-64
2022/03/14 02:36:49;;;;;;;;;;;;;;;-143.90;100.00;55011.94;2097474;28;19924;-64
2022/03/14 02:38:14;;;;;;;;;;;;;;;-143.90;100.00;55051.66;2098681;28;19920;-63
2022/03/14 02:39:37;;;;;;;;;;;;;;;-143.90;100.00;55039.75;2097033;28;20354;-64
2022/03/14 02:40:58;;;;;;;;;;;;;;;-143.90;100.00;55025.84;2097755;28;20400;-64
2022/03/14 02:42:19;;;;;;;;;;;;;;;-143.90;100.00;55035.78;2097570;28;20378;-63
2022/03/14 02:43:40;;;;;;;;;;;;;;;-143.90;100.00;55039.75;2096282;28;19924;-64
2022/03/14 02:45:02;;;;;;;;;;;;;;;-143.90;100.00;55059.59;2097103;28;19931;-65
2022/03/14 02:46:25;;;;;;;;;;;;;;;-143.90;100.00;55047.69;2097408;28;19920;-64
2022/03/14 02:47:46;;;;;;;;;;;;;;;-143.90;100.00;55077.47;2097085;28;20391;-64
2022/03/14 02:49:07;;;;;;;;;;;;;;;-143.90;100.00;55063.56;2096697;28;20688;-64
2022/03/14 02:50:28;;;;;;;;;;;;;;;-143.90;100.00;55027.81;2095087;28;20271;-64
2022/03/14 02:51:52;;;;;;;;;;;;;;;-143.90;100.00;55075.47;2096347;28;19927;-64
2022/03/14 02:53:13;;;;;;;;;;;;;;;-143.90;100.00;55031.78;2095962;28;20019;-64
2022/03/14 02:54:34;;;;;;;;;;;;;;;-143.90;100.00;55039.75;2097284;28;19939;-64
2022/03/14 02:55:55;;;;;;;;;;;;;;;-143.90;100.00;55055.63;2098190;28;19920;-65
2022/03/14 02:57:16;;;;;;;;;;;;;;;-143.90;100.00;54994.06;2104141;28;19932;-64
2022/03/14 02:58:39;;;;;;;;;;;;;;;-143.90;100.00;55061.59;2101006;27;20417;-65
2022/03/14 02:59:59;;;;;;;;;;;;;;;-143.90;100.00;55049.66;2097251;28;20489;-64
2022/03/14 03:01:21;;;;;;;;;;;;;;;-143.90;100.00;55045.69;2095910;28;19924;-65
2022/03/14 03:02:42;;;;;;;;;;;;;;;-143.90;100.00;55037.75;2096036;28;19920;-64
2022/03/14 03:04:04;;;;;;;;;;;;;;;-143.90;100.00;55119.16;2096137;28;19926;-64
2022/03/14 03:05:26;;;;;;;;;;;;;;;-143.90;100.00;55033.78;2096712;28;20018;-65
2022/03/14 03:06:46;;;;;;;;;;;;;;;-143.90;100.00;55023.84;2096876;28;20015;-65
2022/03/14 03:08:07;;;;;;;;;;;;;;;-143.90;100.00;55051.66;2097339;28;19920;-65
2022/03/14 03:09:30;;;;;;;;;;;;;;;-143.90;100.00;55043.72;2096611;28;19975;-64
2022/03/14 03:10:51;;;;;;;;;;;;;;;-143.90;100.00;55051.66;2096189;28;19925;-63
2022/03/14 03:12:13;;;;;;;;;;;;;;;-143.90;100.00;55065.56;2097886;28;20003;-63
2022/03/14 03:13:35;;;;;;;;;;;;;;;-143.90;100.00;55053.63;2097073;28;19924;-64
2022/03/14 03:14:55;;;;;;;;;;;;;;;-143.90;100.00;55053.63;2096430;28;19928;-64
2022/03/14 03:16:16;;;;;;;;;;;;;;;-143.90;100.00;55083.41;2097525;28;19927;-64
2022/03/14 03:17:37;;;;;;;;;;;;;;;-143.90;100.00;55065.56;2095026;28;20023;-64
2022/03/14 03:18:58;;;;;;;;;;;;;;;-143.90;100.00;55055.63;2097127;28;19920;-64
2022/03/14 03:20:22;;;;;;;;;;;;;;;-143.90;100.00;55065.56;2089930;28;19932;-64
2022/03/14 03:21:43;;;;;;;;;;;;;;;-143.90;100.00;55067.53;2095836;28;19959;-64
2022/03/14 03:23:03;;;;;;;;;;;;;;;-143.90;100.00;55039.75;2097838;28;20385;-64
2022/03/14 03:24:24;;;;;;;;;;;;;;;-143.90;100.00;55051.66;2096691;28;19920;-64
2022/03/14 03:25:45;;;;;;;;;;;;;;;-143.90;100.00;55079.44;2095859;28;19920;-64
2022/03/14 03:27:07;;;;;;;;;;;;;;;-143.90;100.00;55059.59;2095703;28;19920;-64
2022/03/14 03:28:28;;;;;;;;;;;;;;;-143.90;100.00;55065.56;2095600;28;19924;-64
2022/03/14 03:29:49;;;;;;;;;;;;;;;-143.90;100.00;55039.75;2096623;28;19986;-64
2022/03/14 03:31:10;;;;;;;;;;;;;;;-143.90;100.00;55023.84;2098439;28;19973;-64
2022/03/14 03:32:31;;;;;;;;;;;;;;;-143.90;100.00;55079.44;2096825;28;19927;-64
2022/03/14 03:33:52;;;;;;;;;;;;;;;-143.90;100.00;55023.84;2096677;28;19920;-65
2022/03/14 03:35:13;;;;;;;;;;;;;;;-143.90;100.00;55063.56;2096735;28;19920;-65
2022/03/14 03:36:34;;;;;;;;;;;;;;;-143.90;100.00;55047.69;2097095;28;20367;-65
2022/03/14 03:37:54;;;;;;;;;;;;;;;-143.90;100.00;55043.72;2097095;28;20265;-65
2022/03/14 03:39:15;;;;;;;;;;;;;;;-143.90;100.00;55043.72;2099608;28;19919;-65
2022/03/14 03:40:35;;;;;;;;;;;;;;;-143.90;100.00;55055.63;2099286;28;19966;-65
2022/03/14 03:41:56;;;;;;;;;;;;;;;-143.90;100.00;55077.47;2098159;28;19927;-65
2022/03/14 03:43:17;;;;;;;;;;;;;;;-143.90;100.00;55027.81;2098041;28;19927;-65
2022/03/14 03:44:38;;;;;;;;;;;;;;;-143.90;100.00;55083.41;2099180;28;20019;-65
2022/03/14 03:45:59;;;;;;;;;;;;;;;-143.90;100.00;55031.78;2097147;28;19931;-65
2022/03/14 03:47:19;;;;;;;;;;;;;;;-143.90;100.00;55051.66;2096062;28;20105;-64
2022/03/14 03:48:40;;;;;;;;;;;;;;;-143.90;100.00;55049.66;2096792;28;20026;-65
2022/03/14 03:50:01;;;;;;;;;;;;;;;-143.90;100.00;55035.78;2088322;28;19921;-65
2022/03/14 03:51:22;;;;;;;;;;;;;;;-143.90;100.00;55059.59;2094363;28;19928;-64
2022/03/14 03:52:42;;;;;;;;;;;;;;;-143.90;100.00;55007.97;2098010;28;20031;-65
2022/03/14 03:54:03;;;;;;;;;;;;;;;-143.90;100.00;55035.78;2097663;28;20319;-64
2022/03/14 03:55:24;;;;;;;;;;;;;;;-143.90;100.00;55047.69;2098418;28;20532;-65
2022/03/14 03:56:46;;;;;;;;;;;;;;;-143.90;100.00;55035.78;2096168;28;19928;-64
2022/03/14 03:58:06;;;;;;;;;;;;;;;-143.90;100.00;55015.91;2096644;28;20760;-64
2022/03/14 03:59:27;;;;;;;;;;;;;;;-143.90;100.00;55075.47;2096435;28;19936;-65
2022/03/14 04:00:47;;;;;;;;;;;;;;;-143.90;100.00;55043.72;2095125;28;19934;-65
2022/03/14 04:02:09;;;;;;;;;;;;;;;-143.90;100.00;55019.88;2096567;28;19924;-64
2022/03/14 04:03:29;;;;;;;;;;;;;;;-143.90;100.00;55055.63;2097055;28;19960;-64
2022/03/14 04:04:50;;;;;;;;;;;;;;;-143.90;100.00;55075.47;2096799;28;19916;-65
2022/03/14 04:06:12;;;;;;;;;;;;;;;-143.90;100.00;55035.78;2095694;28;19973;-65
2022/03/14 04:07:34;;;;;;;;;;;;;;;-143.90;100.00;55071.50;2096458;28;19924;-65
2022/03/14 04:08:55;;;;;;;;;;;;;;;-143.90;100.00;55085.41;2094451;28;19921;-65
2022/03/14 04:10:16;;;;;;;;;;;;;;;-143.90;100.00;55053.63;2094518;28;19934;-63
2022/03/14 04:11:42;;;;;;;;;;;;;;;-143.90;100.00;55055.63;2085067;28;19935;-65
2022/03/14 04:13:03;;;;;;;;;;;;;;;-143.90;100.00;55031.78;2092324;28;22188;-65
2022/03/14 04:14:24;;;;;;;;;;;;;;;-143.90;100.00;55057.59;2094227;28;19966;-65
2022/03/14 04:15:51;;;;;;;;;;;;;;;-143.90;100.00;55067.53;2096382;28;19977;-64
2022/03/14 04:17:13;;;;;;;;;;;;;;;-143.90;100.00;55073.50;2097836;28;19924;-64
2022/03/14 04:18:34;;;;;;;;;;;;;;;-143.90;100.00;55041.72;2095363;28;19926;-65
2022/03/14 04:20:00;;;;;;;;;;;;;;;-143.90;100.00;55027.81;2096046;28;19921;-62
2022/03/14 04:21:23;;;;;;;;;;;;;;;-143.90;100.00;55061.59;2097749;28;19931;-65
2022/03/14 04:22:44;;;;;;;;;;;;;;;-143.90;100.00;55041.72;2098205;28;19924;-65
2022/03/14 04:24:06;;;;;;;;;;;;;;;-143.90;100.00;55067.53;2096256;28;19920;-65
2022/03/14 04:25:26;;;;;;;;;;;;;;;-143.90;100.00;55039.75;2095269;28;19951;-65
2022/03/14 04:26:47;;;;;;;;;;;;;;;-143.90;100.00;55023.84;2097677;28;19928;-65
2022/03/14 04:28:10;;;;;;;;;;;;;;;-143.90;100.00;55083.41;2095721;28;19935;-65
2022/03/14 04:29:31;;;;;;;;;;;;;;;-143.90;100.00;55107.25;2097026;28;19924;-65
2022/03/14 04:30:52;;;;;;;;;;;;;;;-143.90;100.00;55035.78;2097917;28;19927;-65
2022/03/14 04:32:13;;;;;;;;;;;;;;;-143.90;100.00;55079.44;2096887;28;19920;-65
2022/03/14 04:33:34;;;;;;;;;;;;;;;-143.90;100.00;55071.50;2096208;28;19933;-65
2022/03/14 04:34:55;;;;;;;;;;;;;;;-143.90;100.00;55087.41;2096354;28;19924;-65
2022/03/14 04:36:16;;;;;;;;;;;;;;;-143.90;100.00;55093.34;2096208;28;19927;-65
2022/03/14 04:37:37;;;;;;;;;;;;;;;-143.90;100.00;55081.44;2096810;28;19924;-66
2022/03/14 04:38:58;;;;;;;;;;;;;;;-143.90;100.00;55079.44;2105115;28;19990;-66
2022/03/14 04:40:18;;;;;;;;;;;;;;;-143.90;100.00;55075.47;2099877;28;19924;-66
2022/03/14 04:41:39;;;;;;;;;;;;;;;-143.90;100.00;55081.44;2097346;28;20077;-66
2022/03/14 04:43:07;;;;;;;;;;;;;;;-143.90;100.00;55067.53;2097009;28;19974;-66
2022/03/14 04:44:28;;;;;;;;;;;;;;;-143.90;100.00;55043.72;2096464;28;19916;-66
2022/03/14 04:45:49;;;;;;;;;;;;;;;-143.90;100.00;55059.59;2096986;28;20057;-65
2022/03/14 04:47:10;;;;;;;;;;;;;;;-143.90;100.00;55071.50;2097792;28;19920;-65
2022/03/14 04:48:31;;;;;;;;;;;;;;;-143.90;100.00;55051.66;2098666;28;19926;-66
2022/03/14 04:49:52;;;;;;;;;;;;;;;-143.90;100.00;55031.78;2093696;28;19931;-66
2022/03/14 04:51:14;;;;;;;;;;;;;;;-143.90;100.00;55081.44;2095768;28;19920;-66
2022/03/14 04:52:35;;;;;;;;;;;;;;;-143.90;100.00;55059.59;2097089;28;19920;-65
2022/03/14 04:53:55;;;;;;;;;;;;;;;-143.90;100.00;55083.41;2095842;28;19955;-65
2022/03/14 04:55:16;;;;;;;;;;;;;;;-143.90;100.00;55069.53;2096332;28;19920;-66
2022/03/14 04:56:37;;;;;;;;;;;;;;;-143.90;100.00;55073.50;2095859;28;19920;-66
2022/03/14 04:57:57;;;;;;;;;;;;;;;-143.90;100.00;55035.78;2096146;28;19948;-66
2022/03/14 04:59:19;;;;;;;;;;;;;;;-143.90;100.00;55067.53;2095499;28;19920;-64
2022/03/14 05:00:40;;;;;;;;;;;;;;;-143.90;100.00;55061.59;2095823;28;19923;-66
2022/03/14 05:02:02;;;;;;;;;;;;;;;-143.90;100.00;55063.56;2096126;28;19924;-66
2022/03/14 05:03:23;;;;;;;;;;;;;;;-143.90;100.00;55097.31;2097978;28;20489;-66
2022/03/14 05:04:43;;;;;;;;;;;;;;;-143.90;100.00;55087.41;2097796;28;19927;-66
2022/03/14 05:06:04;;;;;;;;;;;;;;;-143.90;100.00;55061.59;2097187;28;19931;-66
2022/03/14 05:07:25;;;;;;;;;;;;;;;-143.90;100.00;55093.34;2095384;28;19927;-66
2022/03/14 05:08:46;;;;;;;;;;;;;;;-143.90;100.00;55083.41;2094208;28;19954;-66
2022/03/14 05:10:07;;;;;;;;;;;;;;;-143.90;100.00;55087.41;2104004;28;20011;-66
2022/03/14 05:11:28;;;;;;;;;;;;;;;-143.90;100.00;55071.50;2096470;28;19966;-66
2022/03/14 05:12:49;;;;;;;;;;;;;;;-143.90;100.00;55099.31;2096683;28;19924;-65
2022/03/14 05:14:10;;;;;;;;;;;;;;;-143.90;100.00;55075.47;2088089;28;19917;-66
2022/03/14 05:15:30;;;;;;;;;;;;;;;-143.90;100.00;55071.50;2091940;28;20380;-66
2022/03/14 05:16:51;;;;;;;;;;;;;;;-143.90;100.00;55079.44;2096217;28;19928;-66
2022/03/14 05:18:12;;;;;;;;;;;;;;;-143.90;100.00;55111.22;2096281;28;19919;-65
2022/03/14 05:19:32;;;;;;;;;;;;;;;-143.90;100.00;55077.47;2095352;28;20632;-66
2022/03/14 05:20:53;;;;;;;;;;;;;;;-143.90;100.00;55055.63;2095938;28;20378;-66
2022/03/14 05:22:13;;;;;;;;;;;;;;;-143.90;100.00;55087.41;2095507;28;19937;-66
2022/03/14 05:23:34;;;;;;;;;;;;;;;-143.90;100.00;55089.38;2095834;28;19924;-65
2022/03/14 05:24:55;;;;;;;;;;;;;;;-143.90;100.00;55047.69;2103888;28;20003;-66
2022/03/14 05:26:16;;;;;;;;;;;;;;;-143.90;100.00;55081.44;2098868;28;19916;-65
2022/03/14 05:27:37;;;;;;;;;;;;;;;-143.90;100.00;55055.63;2096547;28;20450;-66
2022/03/14 05:28:58;;;;;;;;;;;;;;;-143.90;100.00;55055.63;2094496;28;20693;-65
2022/03/14 05:30:18;;;;;;;;;;;;;;;-143.90;100.00;55091.38;2095476;28;19926;-65
2022/03/14 05:31:39;;;;;;;;;;;;;;;-143.90;100.00;55067.53;2096993;28;20039;-65
2022/03/14 05:33:00;;;;;;;;;;;;;;;-143.90;100.00;55095.34;2097464;28;20391;-65
2022/03/14 05:34:20;;;;;;;;;;;;;;;-143.90;100.00;55083.41;2098422;28;20453;-66
2022/03/14 05:35:41;;;;;;;;;;;;;;;-143.90;100.00;55043.72;2098513;28;19920;-66
2022/03/14 05:37:02;;;;;;;;;;;;;;;-143.90;100.00;55079.44;2089931;28;19927;-66
2022/03/14 05:38:23;;;;;;;;;;;;;;;-143.90;100.00;55055.63;2095138;28;20011;-65
2022/03/14 05:39:43;;;;;;;;;;;;;;;-143.90;100.00;55069.53;2097256;28;20430;-65
2022/03/14 05:41:04;;;;;;;;;;;;;;;-143.90;100.00;55061.59;2097219;28;20502;-66
2022/03/14 05:42:25;;;;;;;;;;;;;;;-143.90;100.00;55091.38;2098202;28;19931;-65
2022/03/14 05:43:46;;;;;;;;;;;;;;;-143.90;100.00;55087.41;2098265;28;19966;-66
2022/03/14 05:45:08;;;;;;;;;;;;;;;-143.90;100.00;55081.44;2097668;28;19959;-66
2022/03/14 05:46:29;;;;;;;;;;;;;;;-143.90;100.00;55053.63;2096668;28;19927;-66
2022/03/14 05:47:51;;;;;;;;;;;;;;;-143.90;100.00;55059.59;2097319;28;19921;-66
2022/03/14 05:49:11;;;;;;;;;;;;;;;-143.90;100.00;55091.38;2096359;28;20026;-65
2022/03/14 05:50:32;;;;;;;;;;;;;;;-143.90;100.00;55095.34;2097516;28;19919;-65
2022/03/14 05:51:52;;;;;;;;;;;;;;;-143.90;100.00;55075.47;2098104;28;20483;-65
2022/03/14 05:53:13;;;;;;;;;;;;;;;-143.90;100.00;55075.47;2097883;28;19916;-66
2022/03/14 05:54:34;;;;;;;;;;;;;;;-143.90;100.00;55087.41;2098136;28;19920;-64
2022/03/14 05:55:55;;;;;;;;;;;;;;;-143.90;100.00;55089.38;2097008;28;19927;-66
2022/03/14 05:57:16;;;;;;;;;;;;;;;-143.90;100.00;55051.66;2105269;28;19939;-66
2022/03/14 05:58:40;;;;;;;;;;;;;;;-143.90;100.00;55103.28;2100829;28;19916;-66
2022/03/14 06:00:01;;;;;;;;;;;;;;;-143.90;100.00;55063.56;2098283;28;19926;-66
2022/03/14 06:01:22;;;;;;;;;;;;;;;-143.90;100.00;55077.47;2105437;28;19977;-66
2022/03/14 06:02:46;;;;;;;;;;;;;;;-143.90;100.00;55045.69;2100592;28;19916;-66
2022/03/14 06:04:07;;;;;;;;;;;;;;;-143.90;100.00;55075.47;2097413;28;19924;-65
2022/03/14 06:05:28;;;;;;;;;;;;;;;-143.90;100.00;55067.53;2097365;28;20065;-64
2022/03/14 06:06:49;;;;;;;;;;;;;;;-143.90;100.00;55071.50;2096126;28;19920;-65
2022/03/14 06:08:09;;;;;;;;;;;;;;;-143.90;100.00;55071.50;2097731;28;20007;-65
2022/03/14 06:09:30;;;;;;;;;;;;;;;-143.90;100.00;55063.56;2098444;28;19931;-66
2022/03/14 06:10:51;;;;;;;;;;;;;;;-143.90;100.00;55079.44;2095899;28;20490;-65
2022/03/14 06:12:14;;;;;;;;;;;;;;;-143.90;100.00;55055.63;2089664;28;19955;-64
2022/03/14 06:13:35;;;;;;;;;;;;;;;-143.90;100.00;55053.63;2085636;28;19920;-65
2022/03/14 06:14:57;;;;;;;;;;;;;;;-143.90;100.00;55077.47;2093758;28;19923;-65
2022/03/14 06:16:18;;;;;;;;;;;;;;;-143.90;100.00;55099.31;2105679;28;19983;-66
2022/03/14 06:17:42;;;;;;;;;;;;;;;-143.90;100.00;55095.34;2100224;28;19968;-65
2022/03/14 06:19:03;;;;;;;;;;;;;;;-143.90;100.00;55083.41;2095255;28;19917;-66
2022/03/14 06:20:24;;;;;;;;;;;;;;;-143.90;100.00;55107.25;2097562;28;19921;-65
2022/03/14 06:21:44;;;;;;;;;;;;;;;-143.90;100.00;55107.25;2095233;28;19916;-65
2022/03/14 06:23:05;;;;;;;;;;;;;;;-143.90;100.00;55083.41;2095960;28;19919;-65
2022/03/14 06:24:26;;;;;;;;;;;;;;;-143.90;100.00;55087.41;2097638;28;19923;-66
2022/03/14 06:25:47;;;;;;;;;;;;;;;-143.90;100.00;55083.41;2096762;28;20015;-65
2022/03/14 06:27:08;;;;;;;;;;;;;;;-143.90;100.00;55091.38;2097520;28;19921;-66
2022/03/14 06:28:29;;;;;;;;;;;;;;;-143.90;100.00;55085.41;2087288;28;20064;-66
2022/03/14 06:29:49;;;;;;;;;;;;;;;-143.90;100.00;55081.44;2094773;28;19928;-66
2022/03/14 06:31:10;;;;;;;;;;;;;;;-143.90;100.00;55063.56;2096832;28;19924;-65
2022/03/14 06:32:35;;;;;;;;;;;;;;;-143.90;100.00;55067.53;2096516;28;19916;-66
2022/03/14 06:33:56;;;;;;;;;;;;;;;-143.90;100.00;55115.19;2097914;28;19930;-65
2022/03/14 06:35:17;;;;;;;;;;;;;;;-143.90;100.00;55103.28;2095332;28;19916;-66
2022/03/14 06:36:38;;;;;;;;;;;;;;;-143.90;100.00;55061.59;2097253;28;19920;-65
2022/03/14 06:38:02;;;;;;;;;;;;;;;-143.90;100.00;55107.25;2096356;28;19954;-66
2022/03/14 06:39:24;;;;;;;;;;;;;;;-143.90;100.00;55095.34;2096813;28;19927;-65
2022/03/14 06:40:44;;;;;;;;;;;;;;;-143.90;100.00;55101.28;2090243;28;19959;-65
2022/03/14 06:42:09;;;;;;;;;;;;;;;-143.90;100.00;55039.75;2094737;28;19920;-65
2022/03/14 06:43:33;;;;;;;;;;;;;;;-143.90;100.00;55067.53;2096601;28;19924;-65
2022/03/14 06:44:53;;;;;;;;;;;;;;;-143.90;100.00;55081.44;2096574;28;19987;-66
2022/03/14 06:46:15;;;;;;;;;;;;;;;-143.90;100.00;55089.38;2096993;28;20722;-65
2022/03/14 06:47:39;;;;;;;;;;;;;;;-143.90;100.00;55083.41;2096022;28;19931;-65